Terminal Aerodrome Forecast
Issued by NWS

Home | Current Version | Previous Version | Text Only | Print | Product List | Glossary On
Versions: 1 2 3 4 5 6 7 8 9 10 11 12 13
000
FTAK31 PAJN 032300
TAFAGY
TAF
PAGY 032325Z 0400/0424 21018G28KT P6SM OVC060
     FM040600 20010KT P6SM BKN050
     FM040900 VRB03KT P6SM BKN040
     FM041500 VRB02KT P6SM FEW040
     FM041800 22008KT P6SM FEW060 SCT250
     FM042200 21016KT P6SM FEW070 BKN250
      AMD LTD TO CLD VIS AND WIND=

USA.gov is the U.S. government's official web portal to all federal, state and local government web resources and services.